Time;durP1;ratioP1;P1;durP2;ratioP2;P2;SDS_P1;SDS_P2;PMS_P1;PMS_P2;Temp;Humidity;BMP_temperature;BMP_pressure;BME280_temperature;BME280_humidity;BME280_pressure;Samples;Min_cycle;Max_cycle;Signal;HPM_P1;HPM_P2
2023/09/12 00:01:34;;;;;;;1999.90;999.90;;;;;;;;;;5086880;28;20143;-92
2023/09/12 00:04:00;;;;;;;1999.90;999.90;;;;;;;;;;5087915;28;20086;-92
2023/09/12 00:06:27;;;;;;;1999.90;999.90;;;;;;;;;;5089027;28;20411;-93
2023/09/12 00:08:54;;;;;;;1999.90;999.90;;;;;;;;;;5085050;28;20126;-92
2023/09/12 00:11:20;;;;;;;1999.90;999.90;;;;;;;;;;5085134;28;20051;-92
2023/09/12 00:13:48;;;;;;;1999.90;999.90;;;;;;;;;;5088744;28;20050;-93
2023/09/12 00:16:15;;;;;;;1999.90;999.90;;;;;;;;;;5080914;28;20231;-92
2023/09/12 00:18:42;;;;;;;1999.90;999.90;;;;;;;;;;5075613;28;20074;-93
2023/09/12 00:21:08;;;;;;;1999.90;999.90;;;;;;;;;;5082928;28;20089;-94
2023/09/12 00:23:35;;;;;;;1999.90;999.90;;;;;;;;;;5084485;28;20043;-94
2023/09/12 00:26:02;;;;;;;1999.90;999.90;;;;;;;;;;5083535;28;20473;-93
2023/09/12 00:28:28;;;;;;;1999.90;999.90;;;;;;;;;;5082099;28;20054;-93
2023/09/12 00:30:56;;;;;;;1999.90;999.90;;;;;;;;;;5084336;28;20048;-92
2023/09/12 00:33:23;;;;;;;1999.90;999.90;;;;;;;;;;5086749;28;20059;-93
2023/09/12 00:35:50;;;;;;;1999.90;999.90;;;;;;;;;;5086201;28;20135;-92
2023/09/12 00:38:16;;;;;;;1999.90;999.90;;;;;;;;;;5081073;28;20056;-93
2023/09/12 00:40:43;;;;;;;1999.90;999.90;;;;;;;;;;5081862;28;20044;-93
2023/09/12 00:43:10;;;;;;;1999.90;999.90;;;;;;;;;;5083787;28;20048;-93
2023/09/12 00:45:37;;;;;;;1999.90;999.90;;;;;;;;;;5083881;28;20055;-93
2023/09/12 00:48:05;;;;;;;1999.90;999.90;;;;;;;;;;5084793;28;20059;-92
2023/09/12 00:50:32;;;;;;;1999.90;999.90;;;;;;;;;;5081538;28;20044;-93
2023/09/12 00:53:00;;;;;;;1999.90;999.90;;;;;;;;;;5088452;28;20036;-93
2023/09/12 00:55:27;;;;;;;1999.90;999.90;;;;;;;;;;5080459;28;20045;-93
2023/09/12 00:57:54;;;;;;;1999.90;999.90;;;;;;;;;;5086359;28;20049;-93
2023/09/12 01:00:21;;;;;;;1999.90;999.90;;;;;;;;;;5092640;28;20160;-93
2023/09/12 01:02:49;;;;;;;1999.90;999.90;;;;;;;;;;5087358;28;20048;-93
2023/09/12 01:05:17;;;;;;;1999.90;999.90;;;;;;;;;;5075862;28;20102;-92
2023/09/12 01:07:44;;;;;;;1999.90;999.90;;;;;;;;;;5074664;28;20298;-93
2023/09/12 01:10:11;;;;;;;1999.90;999.90;;;;;;;;;;5074682;28;20059;-93
2023/09/12 01:12:38;;;;;;;1999.90;999.90;;;;;;;;;;5074210;28;20041;-93
2023/09/12 01:15:09;;;;;;;1999.90;999.90;;;;;;;;;;5090488;28;20040;-93
2023/09/12 01:17:37;;;;;;;1999.90;999.90;;;;;;;;;;5091702;28;20052;-93
2023/09/12 01:20:05;;;;;;;1999.90;999.90;;;;;;;;;;5093802;28;20048;-93
2023/09/12 01:22:54;;;;;;;1999.90;999.90;;;;;;;;;;5080176;28;20044;-93
2023/09/12 01:25:39;;;;;;;1999.90;999.90;;;;;;;;;;5070819;28;20055;-92
2023/09/12 01:28:10;;;;;;;1999.90;999.90;;;;;;;;;;5084262;28;20499;-93
2023/09/12 01:30:37;;;;;;;1999.90;999.90;;;;;;;;;;5085522;28;20054;-91
2023/09/12 01:33:04;;;;;;;1999.90;999.90;;;;;;;;;;5078293;28;20852;-92
2023/09/12 01:35:31;;;;;;;1999.90;999.90;;;;;;;;;;5082154;28;20070;-94
2023/09/12 01:37:57;;;;;;;1999.90;999.90;;;;;;;;;;5086245;28;20047;-94
2023/09/12 01:40:31;;;;;;;1999.90;999.90;;;;;;;;;;5085373;28;20143;-94
2023/09/12 01:42:58;;;;;;;1999.90;999.90;;;;;;;;;;5081184;28;20135;-93
2023/09/12 01:45:26;;;;;;;1999.90;999.90;;;;;;;;;;5082146;28;20142;-94
2023/09/12 01:47:53;;;;;;;1999.90;999.90;;;;;;;;;;5087122;28;20260;-93
2023/09/12 01:50:19;;;;;;;1999.90;999.90;;;;;;;;;;5083937;28;20048;-94
2023/09/12 01:52:46;;;;;;;1999.90;999.90;;;;;;;;;;5082926;28;20058;-92
2023/09/12 01:55:12;;;;;;;1999.90;999.90;;;;;;;;;;5084702;28;20054;-93
2023/09/12 01:57:40;;;;;;;1999.90;999.90;;;;;;;;;;5086290;28;20072;-94
2023/09/12 02:00:08;;;;;;;1999.90;999.90;;;;;;;;;;5085794;28;20044;-93
2023/09/12 02:02:36;;;;;;;1999.90;999.90;;;;;;;;;;5084749;28;20079;-92
2023/09/12 02:05:18;;;;;;;1999.90;999.90;;;;;;;;;;5083939;28;20074;-92
2023/09/12 02:07:45;;;;;;;1999.90;999.90;;;;;;;;;;5075193;28;20048;-93
2023/09/12 02:10:12;;;;;;;1999.90;999.90;;;;;;;;;;5082832;28;20058;-92
2023/09/12 02:12:39;;;;;;;1999.90;999.90;;;;;;;;;;5089160;28;20048;-93
2023/09/12 02:15:06;;;;;;;1999.90;999.90;;;;;;;;;;5089816;28;20547;-94
2023/09/12 02:17:33;;;;;;;1999.90;999.90;;;;;;;;;;5086544;28;20047;-93
2023/09/12 02:20:01;;;;;;;1999.90;999.90;;;;;;;;;;5084047;28;20041;-93
2023/09/12 02:22:27;;;;;;;1999.90;999.90;;;;;;;;;;5080170;28;20425;-93
2023/09/12 02:24:54;;;;;;;1999.90;999.90;;;;;;;;;;5077304;28;20503;-93
2023/09/12 02:27:21;;;;;;;1999.90;999.90;;;;;;;;;;5086956;28;20044;-93
2023/09/12 02:29:47;;;;;;;1999.90;999.90;;;;;;;;;;5079978;28;20044;-92
2023/09/12 02:32:14;;;;;;;1999.90;999.90;;;;;;;;;;5084832;28;20128;-94
2023/09/12 02:34:41;;;;;;;1999.90;999.90;;;;;;;;;;5081359;28;20114;-95
2023/09/12 02:37:09;;;;;;;1999.90;999.90;;;;;;;;;;5082730;28;20047;-94
2023/09/12 02:39:35;;;;;;;1999.90;999.90;;;;;;;;;;5081870;28;20044;-94
2023/09/12 02:42:02;;;;;;;1999.90;999.90;;;;;;;;;;5085668;28;20135;-94
2023/09/12 02:44:29;;;;;;;1999.90;999.90;;;;;;;;;;5085514;28;20052;-93
2023/09/12 02:46:55;;;;;;;1999.90;999.90;;;;;;;;;;5088174;28;20050;-92
2023/09/12 02:49:22;;;;;;;1999.90;999.90;;;;;;;;;;5083319;28;20051;-93
2023/09/12 02:51:48;;;;;;;1999.90;999.90;;;;;;;;;;5081704;28;20055;-94
2023/09/12 02:54:16;;;;;;;1999.90;999.90;;;;;;;;;;5080378;28;20059;-93
2023/09/12 02:56:43;;;;;;;1999.90;999.90;;;;;;;;;;5081966;28;20052;-93
2023/09/12 02:59:10;;;;;;;1999.90;999.90;;;;;;;;;;5088994;28;20776;-93
2023/09/12 03:01:36;;;;;;;1999.90;999.90;;;;;;;;;;5087186;28;20051;-93
2023/09/12 03:04:03;;;;;;;1999.90;999.90;;;;;;;;;;5083874;28;20422;-94
2023/09/12 03:06:30;;;;;;;1999.90;999.90;;;;;;;;;;5081306;28;20046;-94
2023/09/12 03:08:57;;;;;;;1999.90;999.90;;;;;;;;;;5080916;28;20050;-94
2023/09/12 03:11:27;;;;;;;1999.90;999.90;;;;;;;;;;5085133;28;20055;-95
2023/09/12 03:13:53;;;;;;;1999.90;999.90;;;;;;;;;;5084976;28;20151;-94
2023/09/12 03:16:20;;;;;;;1999.90;999.90;;;;;;;;;;5089259;28;20070;-95
2023/09/12 03:18:46;;;;;;;1999.90;999.90;;;;;;;;;;5095581;28;20089;-94
2023/09/12 03:21:13;;;;;;;1999.90;999.90;;;;;;;;;;5092698;28;20048;-94
2023/09/12 03:23:39;;;;;;;1999.90;999.90;;;;;;;;;;5089525;28;20044;-95
2023/09/12 03:26:07;;;;;;;1999.90;999.90;;;;;;;;;;5079599;28;20045;-95
2023/09/12 03:28:35;;;;;;;1999.90;999.90;;;;;;;;;;5089039;28;20052;-94
2023/09/12 03:31:06;;;;;;;1999.90;999.90;;;;;;;;;;5086215;28;20044;-94
2023/09/12 03:33:33;;;;;;;1999.90;999.90;;;;;;;;;;5092814;28;20044;-94
2023/09/12 03:36:06;;;;;;;1999.90;999.90;;;;;;;;;;5084582;28;20108;-95
2023/09/12 03:38:32;;;;;;;1999.90;999.90;;;;;;;;;;5090718;28;20048;-95
2023/09/12 03:40:59;;;;;;;1999.90;999.90;;;;;;;;;;5084339;28;20056;-94
2023/09/12 03:43:26;;;;;;;1999.90;999.90;;;;;;;;;;5093667;28;20044;-91
2023/09/12 03:45:54;;;;;;;1999.90;999.90;;;;;;;;;;5086408;28;20044;-91
2023/09/12 03:48:21;;;;;;;1999.90;999.90;;;;;;;;;;5087994;28;20059;-92
2023/09/12 03:50:47;;;;;;;1999.90;999.90;;;;;;;;;;5078152;28;20516;-93
2023/09/12 03:53:15;;;;;;;1999.90;999.90;;;;;;;;;;5086765;28;20048;-92
2023/09/12 03:55:41;;;;;;;1999.90;999.90;;;;;;;;;;5090687;28;20054;-92
2023/09/12 03:58:08;;;;;;;1999.90;999.90;;;;;;;;;;5082806;28;20056;-93
2023/09/12 04:00:35;;;;;;;1999.90;999.90;;;;;;;;;;5085227;28;20400;-93
2023/09/12 04:03:03;;;;;;;1999.90;999.90;;;;;;;;;;5088884;28;20048;-92
2023/09/12 04:05:30;;;;;;;1999.90;999.90;;;;;;;;;;5084342;28;20043;-93
2023/09/12 04:07:56;;;;;;;1999.90;999.90;;;;;;;;;;5083733;28;20078;-93
2023/09/12 04:10:23;;;;;;;1999.90;999.90;;;;;;;;;;5082464;28;20078;-93
2023/09/12 04:12:49;;;;;;;1999.90;999.90;;;;;;;;;;5083894;28;20056;-93
2023/09/12 04:15:16;;;;;;;1999.90;999.90;;;;;;;;;;5089279;28;20051;-92
2023/09/12 04:17:43;;;;;;;1999.90;999.90;;;;;;;;;;5079874;28;20051;-91
2023/09/12 04:20:13;;;;;;;1999.90;999.90;;;;;;;;;;5085371;28;20447;-92
2023/09/12 04:22:40;;;;;;;1999.90;999.90;;;;;;;;;;5090744;28;20084;-91
2023/09/12 04:25:07;;;;;;;1999.90;999.90;;;;;;;;;;5087947;28;20408;-93
2023/09/12 04:27:34;;;;;;;1999.90;999.90;;;;;;;;;;5081076;28;20547;-91
2023/09/12 04:30:00;;;;;;;1999.90;999.90;;;;;;;;;;5079789;28;20048;-91
2023/09/12 04:32:27;;;;;;;1999.90;999.90;;;;;;;;;;5083451;28;20044;-94
2023/09/12 04:34:53;;;;;;;1999.90;999.90;;;;;;;;;;5079693;28;20131;-93
2023/09/12 04:37:21;;;;;;;1999.90;999.90;;;;;;;;;;5083957;28;20052;-94
2023/09/12 04:39:49;;;;;;;1999.90;999.90;;;;;;;;;;5093183;28;20044;-93
2023/09/12 04:42:15;;;;;;;1999.90;999.90;;;;;;;;;;5076548;28;20053;-94
2023/09/12 04:44:43;;;;;;;1999.90;999.90;;;;;;;;;;5083280;28;20044;-92
2023/09/12 04:47:09;;;;;;;1999.90;999.90;;;;;;;;;;5090761;28;20044;-92
2023/09/12 04:49:36;;;;;;;1999.90;999.90;;;;;;;;;;5082767;28;20083;-95
2023/09/12 04:52:03;;;;;;;1999.90;999.90;;;;;;;;;;5084355;28;20044;-94
2023/09/12 04:54:31;;;;;;;1999.90;999.90;;;;;;;;;;5078210;28;20044;-95
2023/09/12 04:56:58;;;;;;;1999.90;999.90;;;;;;;;;;5091873;28;20052;-94
2023/09/12 04:59:24;;;;;;;1999.90;999.90;;;;;;;;;;5077954;28;20051;-94
2023/09/12 05:01:51;;;;;;;1999.90;999.90;;;;;;;;;;5081412;28;20140;-91
2023/09/12 05:04:17;;;;;;;1999.90;999.90;;;;;;;;;;5083627;28;20504;-91
2023/09/12 05:06:49;;;;;;;1999.90;999.90;;;;;;;;;;5084571;28;20044;-91
2023/09/12 05:09:16;;;;;;;1999.90;999.90;;;;;;;;;;5083747;28;20055;-93
2023/09/12 05:11:45;;;;;;;1999.90;999.90;;;;;;;;;;5085479;28;20056;-93
2023/09/12 05:14:11;;;;;;;1999.90;999.90;;;;;;;;;;5066048;28;20131;-94
2023/09/12 05:16:38;;;;;;;1999.90;999.90;;;;;;;;;;5080295;28;20051;-94
2023/09/12 05:19:04;;;;;;;1999.90;999.90;;;;;;;;;;5086465;28;20052;-94
2023/09/12 05:21:31;;;;;;;1999.90;999.90;;;;;;;;;;5079613;28;20159;-92
2023/09/12 05:23:58;;;;;;;1999.90;999.90;;;;;;;;;;5080103;28;20040;-94
2023/09/12 05:26:24;;;;;;;1999.90;999.90;;;;;;;;;;5085802;28;20879;-94
2023/09/12 05:28:53;;;;;;;1999.90;999.90;;;;;;;;;;5064779;28;20052;-89
2023/09/12 05:31:19;;;;;;;1999.90;999.90;;;;;;;;;;5073642;28;20051;-91
2023/09/12 05:33:46;;;;;;;1999.90;999.90;;;;;;;;;;5073452;28;20063;-89
2023/09/12 05:36:12;;;;;;;1999.90;999.90;;;;;;;;;;5073776;28;20055;-90
2023/09/12 05:38:39;;;;;;;1999.90;999.90;;;;;;;;;;5073670;28;20050;-88
2023/09/12 05:41:05;;;;;;;1999.90;999.90;;;;;;;;;;5080002;28;20054;-88
2023/09/12 05:43:32;;;;;;;1999.90;999.90;;;;;;;;;;5082746;28;20056;-89
2023/09/12 05:46:00;;;;;;;1999.90;999.90;;;;;;;;;;5085273;28;20062;-87
2023/09/12 05:48:26;;;;;;;1999.90;999.90;;;;;;;;;;5084279;28;20046;-87
2023/09/12 05:50:53;;;;;;;1999.90;999.90;;;;;;;;;;5073431;28;20040;-89
2023/09/12 05:53:19;;;;;;;1999.90;999.90;;;;;;;;;;5085733;28;20484;-88
2023/09/12 05:55:46;;;;;;;1999.90;999.90;;;;;;;;;;5090616;28;20051;-88
2023/09/12 05:58:13;;;;;;;1999.90;999.90;;;;;;;;;;5073647;28;20113;-89
2023/09/12 06:00:39;;;;;;;1999.90;999.90;;;;;;;;;;5087012;28;20044;-89
2023/09/12 06:03:08;;;;;;;1999.90;999.90;;;;;;;;;;5090447;28;20050;-88
2023/09/12 06:05:35;;;;;;;1999.90;999.90;;;;;;;;;;5073249;28;20049;-89
2023/09/12 06:08:01;;;;;;;1999.90;999.90;;;;;;;;;;5073117;28;20044;-89
2023/09/12 06:10:28;;;;;;;1999.90;999.90;;;;;;;;;;5082066;28;20083;-90
2023/09/12 06:12:54;;;;;;;1999.90;999.90;;;;;;;;;;5080431;28;20416;-89
2023/09/12 06:15:21;;;;;;;1999.90;999.90;;;;;;;;;;5082059;28;20044;-88
2023/09/12 06:17:47;;;;;;;1999.90;999.90;;;;;;;;;;5073331;28;20048;-89
2023/09/12 06:20:15;;;;;;;1999.90;999.90;;;;;;;;;;5083999;28;20056;-89
2023/09/12 06:22:43;;;;;;;1999.90;999.90;;;;;;;;;;5078058;28;20048;-89
2023/09/12 06:25:09;;;;;;;1999.90;999.90;;;;;;;;;;5077923;28;20044;-89
2023/09/12 06:27:36;;;;;;;1999.90;999.90;;;;;;;;;;5079363;28;20052;-89
2023/09/12 06:30:03;;;;;;;1999.90;999.90;;;;;;;;;;5089980;28;20121;-90
2023/09/12 06:32:29;;;;;;;1999.90;999.90;;;;;;;;;;5088454;28;20040;-89
2023/09/12 06:34:56;;;;;;;1999.90;999.90;;;;;;;;;;5082411;28;20044;-89
2023/09/12 06:37:24;;;;;;;1999.90;999.90;;;;;;;;;;5082053;28;20048;-89
2023/09/12 06:39:51;;;;;;;1999.90;999.90;;;;;;;;;;5077746;28;20044;-89
2023/09/12 06:42:18;;;;;;;1999.90;999.90;;;;;;;;;;5081811;28;20048;-89
2023/09/12 06:44:44;;;;;;;1999.90;999.90;;;;;;;;;;5081160;28;20044;-89
2023/09/12 06:47:11;;;;;;;1999.90;999.90;;;;;;;;;;5084761;28;20041;-89
2023/09/12 06:49:38;;;;;;;1999.90;999.90;;;;;;;;;;5087242;28;20062;-88
2023/09/12 06:52:05;;;;;;;1999.90;999.90;;;;;;;;;;5084923;28;20036;-89
2023/09/12 06:54:34;;;;;;;1999.90;999.90;;;;;;;;;;5088516;28;20050;-90
2023/09/12 06:57:00;;;;;;;1999.90;999.90;;;;;;;;;;5076879;28;20123;-89
2023/09/12 06:59:27;;;;;;;1999.90;999.90;;;;;;;;;;5081136;28;20044;-88
2023/09/12 07:01:53;;;;;;;1999.90;999.90;;;;;;;;;;5084438;28;20089;-90
2023/09/12 07:04:20;;;;;;;1999.90;999.90;;;;;;;;;;5088994;28;20058;-89
2023/09/12 07:06:56;;;;;;;1999.90;999.90;;;;;;;;;;5086018;28;20040;-89
2023/09/12 07:09:23;;;;;;;1999.90;999.90;;;;;;;;;;5080667;28;20048;-90
2023/09/12 07:11:52;;;;;;;1999.90;999.90;;;;;;;;;;5085532;28;20080;-89
2023/09/12 07:14:18;;;;;;;1999.90;999.90;;;;;;;;;;5086227;28;20044;-89
2023/09/12 07:16:45;;;;;;;1999.90;999.90;;;;;;;;;;5083368;28;20051;-89
2023/09/12 07:19:11;;;;;;;1999.90;999.90;;;;;;;;;;5084900;28;20050;-89
2023/09/12 07:21:38;;;;;;;1999.90;999.90;;;;;;;;;;5084149;28;20051;-89
2023/09/12 07:24:05;;;;;;;1999.90;999.90;;;;;;;;;;5089425;28;20045;-89
2023/09/12 07:26:32;;;;;;;1999.90;999.90;;;;;;;;;;5079949;28;20131;-88
2023/09/12 07:29:02;;;;;;;1999.90;999.90;;;;;;;;;;5088020;28;20052;-89
2023/09/12 07:31:29;;;;;;;1999.90;999.90;;;;;;;;;;5083890;28;20057;-88
2023/09/12 07:33:55;;;;;;;1999.90;999.90;;;;;;;;;;5094578;28;20063;-89
2023/09/12 07:36:22;;;;;;;1999.90;999.90;;;;;;;;;;5080293;28;20048;-88
2023/09/12 07:38:49;;;;;;;1999.90;999.90;;;;;;;;;;5079706;28;20432;-88
2023/09/12 07:41:16;;;;;;;1999.90;999.90;;;;;;;;;;5077617;28;20463;-86
2023/09/12 07:43:42;;;;;;;1999.90;999.90;;;;;;;;;;5086007;28;20039;-88
2023/09/12 07:46:10;;;;;;;1999.90;999.90;;;;;;;;;;5084191;28;20131;-87
2023/09/12 07:48:36;;;;;;;1999.90;999.90;;;;;;;;;;5085574;28;20044;-88
2023/09/12 07:51:12;;;;;;;1999.90;999.90;;;;;;;;;;5076290;28;20048;-87
2023/09/12 07:53:38;;;;;;;1999.90;999.90;;;;;;;;;;5080613;28;20046;-87
2023/09/12 07:56:05;;;;;;;1999.90;999.90;;;;;;;;;;5082100;28;20058;-85
2023/09/12 07:58:31;;;;;;;1999.90;999.90;;;;;;;;;;5083577;28;20047;-85
2023/09/12 08:00:58;;;;;;;1999.90;999.90;;;;;;;;;;5080268;28;20040;-85
2023/09/12 08:03:27;;;;;;;1999.90;999.90;;;;;;;;;;5079048;28;20155;-83
2023/09/12 08:05:57;;;;;;;1999.90;999.90;;;;;;;;;;5085152;28;20048;-87
2023/09/12 08:08:23;;;;;;;1999.90;999.90;;;;;;;;;;5089051;28;20455;-89
2023/09/12 08:10:50;;;;;;;1999.90;999.90;;;;;;;;;;5080125;28;20473;-86
2023/09/12 08:13:17;;;;;;;1999.90;999.90;;;;;;;;;;5084257;28;20480;-87
2023/09/12 08:15:43;;;;;;;1999.90;999.90;;;;;;;;;;5086866;28;20044;-88
2023/09/12 08:18:10;;;;;;;1999.90;999.90;;;;;;;;;;5091639;28;20051;-89
2023/09/12 08:20:38;;;;;;;1999.90;999.90;;;;;;;;;;5083067;28;20041;-88
2023/09/12 08:23:05;;;;;;;1999.90;999.90;;;;;;;;;;5079702;28;20040;-87
2023/09/12 08:25:31;;;;;;;1999.90;999.90;;;;;;;;;;5081588;28;20052;-88
2023/09/12 08:27:58;;;;;;;1999.90;999.90;;;;;;;;;;5081336;28;20516;-88
2023/09/12 08:30:25;;;;;;;1999.90;999.90;;;;;;;;;;5089833;28;20044;-88
2023/09/12 08:32:51;;;;;;;1999.90;999.90;;;;;;;;;;5094376;28;20043;-87
2023/09/12 08:35:18;;;;;;;1999.90;999.90;;;;;;;;;;5084904;28;20047;-89
2023/09/12 08:37:46;;;;;;;1999.90;999.90;;;;;;;;;;5078425;28;20044;-87
2023/09/12 08:40:12;;;;;;;1999.90;999.90;;;;;;;;;;5087758;28;20413;-88
2023/09/12 08:42:41;;;;;;;1999.90;999.90;;;;;;;;;;5084899;28;20058;-86
2023/09/12 08:45:12;;;;;;;1999.90;999.90;;;;;;;;;;5073897;28;20052;-89
2023/09/12 08:47:40;;;;;;;1999.90;999.90;;;;;;;;;;5082773;28;20102;-85
2023/09/12 08:50:08;;;;;;;1999.90;999.90;;;;;;;;;;5079302;28;20053;-87
2023/09/12 08:52:35;;;;;;;1999.90;999.90;;;;;;;;;;5074010;28;20040;-86
2023/09/12 08:55:03;;;;;;;1999.90;999.90;;;;;;;;;;5074230;28;20051;-84
2023/09/12 08:57:30;;;;;;;1999.90;999.90;;;;;;;;;;5073966;28;20055;-86
2023/09/12 08:59:57;;;;;;;1999.90;999.90;;;;;;;;;;5074334;28;20055;-86
2023/09/12 09:02:23;;;;;;;1999.90;999.90;;;;;;;;;;5073854;28;20052;-86
2023/09/12 09:04:51;;;;;;;1999.90;999.90;;;;;;;;;;5081854;28;20061;-86
2023/09/12 09:07:19;;;;;;;1999.90;999.90;;;;;;;;;;5075654;28;20045;-82
2023/09/12 09:09:47;;;;;;;1999.90;999.90;;;;;;;;;;5082548;28;20480;-86
2023/09/12 09:12:15;;;;;;;1999.90;999.90;;;;;;;;;;5076574;28;20052;-85
2023/09/12 09:14:41;;;;;;;1999.90;999.90;;;;;;;;;;5088255;28;20492;-85
2023/09/12 09:17:10;;;;;;;1999.90;999.90;;;;;;;;;;5083689;28;20048;-85
2023/09/12 09:19:44;;;;;;;1999.90;999.90;;;;;;;;;;5083735;28;20052;-85
2023/09/12 09:22:11;;;;;;;1999.90;999.90;;;;;;;;;;5082598;28;20127;-86
2023/09/12 09:24:38;;;;;;;1999.90;999.90;;;;;;;;;;5077782;28;20044;-84
2023/09/12 09:27:05;;;;;;;1999.90;999.90;;;;;;;;;;5073344;28;20131;-85
2023/09/12 09:29:33;;;;;;;1999.90;999.90;;;;;;;;;;5087225;28;20042;-85
2023/09/12 09:32:01;;;;;;;1999.90;999.90;;;;;;;;;;5087091;28;20051;-85
2023/09/12 09:34:29;;;;;;;1999.90;999.90;;;;;;;;;;5083802;28;20044;-85
2023/09/12 09:36:59;;;;;;;1999.90;999.90;;;;;;;;;;5078981;28;20117;-85
2023/09/12 09:39:29;;;;;;;1999.90;999.90;;;;;;;;;;5096296;28;20051;-84
2023/09/12 09:41:57;;;;;;;1999.90;999.90;;;;;;;;;;5095540;28;20040;-83
2023/09/12 09:44:26;;;;;;;1999.90;999.90;;;;;;;;;;5081746;28;20046;-83
2023/09/12 09:46:56;;;;;;;1999.90;999.90;;;;;;;;;;5077045;28;20052;-86
2023/09/12 09:49:22;;;;;;;1999.90;999.90;;;;;;;;;;5090223;28;20044;-86
2023/09/12 09:51:49;;;;;;;1999.90;999.90;;;;;;;;;;5094353;28;20484;-86
2023/09/12 09:54:16;;;;;;;1999.90;999.90;;;;;;;;;;5093422;28;20048;-88
2023/09/12 09:56:49;;;;;;;1999.90;999.90;;;;;;;;;;5082380;28;20400;-87
2023/09/12 09:59:17;;;;;;;1999.90;999.90;;;;;;;;;;5087956;28;20054;-84
2023/09/12 10:01:44;;;;;;;1999.90;999.90;;;;;;;;;;5081090;28;20059;-89
2023/09/12 10:04:13;;;;;;;1999.90;999.90;;;;;;;;;;5077307;28;20470;-88
2023/09/12 10:06:47;;;;;;;1999.90;999.90;;;;;;;;;;5082562;28;20051;-85
2023/09/12 10:09:15;;;;;;;1999.90;999.90;;;;;;;;;;5084449;28;20051;-85
2023/09/12 10:11:43;;;;;;;1999.90;999.90;;;;;;;;;;5081849;28;20046;-87
2023/09/12 10:14:10;;;;;;;1999.90;999.90;;;;;;;;;;5082551;28;20036;-85
2023/09/12 10:16:42;;;;;;;1999.90;999.90;;;;;;;;;;5079159;28;20573;-86
2023/09/12 10:19:14;;;;;;;1999.90;999.90;;;;;;;;;;5081280;28;20058;-86
2023/09/12 10:21:48;;;;;;;1999.90;999.90;;;;;;;;;;5085518;28;20105;-85
2023/09/12 10:24:15;;;;;;;1999.90;999.90;;;;;;;;;;5078389;28;20067;-86
2023/09/12 10:26:45;;;;;;;1999.90;999.90;;;;;;;;;;5073888;28;20048;-85
2023/09/12 10:29:13;;;;;;;1999.90;999.90;;;;;;;;;;5080536;28;20044;-85
2023/09/12 10:31:40;;;;;;;1999.90;999.90;;;;;;;;;;5083183;28;20055;-84
2023/09/12 10:34:09;;;;;;;1999.90;999.90;;;;;;;;;;5080311;28;20415;-88
2023/09/12 10:36:44;;;;;;;1999.90;999.90;;;;;;;;;;5079660;28;20051;-87
2023/09/12 10:39:11;;;;;;;1999.90;999.90;;;;;;;;;;5087927;28;20068;-85
2023/09/12 10:41:39;;;;;;;1999.90;999.90;;;;;;;;;;5071479;28;20044;-86
2023/09/12 10:44:10;;;;;;;1999.90;999.90;;;;;;;;;;5080852;28;20048;-84
2023/09/12 10:46:39;;;;;;;1999.90;999.90;;;;;;;;;;5085070;28;20063;-85
2023/09/12 10:49:08;;;;;;;1999.90;999.90;;;;;;;;;;5084293;28;20154;-85
2023/09/12 10:51:36;;;;;;;1999.90;999.90;;;;;;;;;;5085469;28;20048;-85
2023/09/12 10:54:04;;;;;;;1999.90;999.90;;;;;;;;;;5091110;28;20036;-86
2023/09/12 10:56:32;;;;;;;1999.90;999.90;;;;;;;;;;5092016;28;20050;-85
2023/09/12 10:59:12;;;;;;;1999.90;999.90;;;;;;;;;;5092449;28;20062;-85
2023/09/12 11:01:40;;;;;;;1999.90;999.90;;;;;;;;;;5092516;28;20162;-85
2023/09/12 11:04:33;;;;;;;1999.90;999.90;;;;;;;;;;5092751;28;20063;-87
2023/09/12 11:07:01;;;;;;;1999.90;999.90;;;;;;;;;;5088287;28;20466;-85
2023/09/12 11:09:29;;;;;;;1999.90;999.90;;;;;;;;;;5077966;28;20493;-86
2023/09/12 11:11:58;;;;;;;1999.90;999.90;;;;;;;;;;5088848;28;20109;-87
2023/09/12 11:14:26;;;;;;;1999.90;999.90;;;;;;;;;;5087503;28;20078;-87
2023/09/12 11:17:21;;;;;;;1999.90;999.90;;;;;;;;;;5086433;28;20040;-85
2023/09/12 11:19:51;;;;;;;1999.90;999.90;;;;;;;;;;5081581;28;20049;-86
2023/09/12 11:22:25;;;;;;;1999.90;999.90;;;;;;;;;;5084735;28;20048;-87
2023/09/12 11:24:55;;;;;;;1999.90;999.90;;;;;;;;;;5087398;28;20117;-84
2023/09/12 11:27:22;;;;;;;1999.90;999.90;;;;;;;;;;5093310;28;20052;-85
2023/09/12 11:29:53;;;;;;;1999.90;999.90;;;;;;;;;;5092911;28;20075;-85
2023/09/12 11:32:27;;;;;;;1999.90;999.90;;;;;;;;;;5093492;28;20055;-85
2023/09/12 11:35:14;;;;;;;1999.90;999.90;;;;;;;;;;5081179;28;20052;-85
2023/09/12 11:37:41;;;;;;;1999.90;999.90;;;;;;;;;;5096404;28;20480;-85
2023/09/12 11:40:18;;;;;;;1999.90;999.90;;;;;;;;;;5096519;28;20480;-85
2023/09/12 11:42:46;;;;;;;1999.90;999.90;;;;;;;;;;5096466;28;20044;-86
2023/09/12 11:45:13;;;;;;;1999.90;999.90;;;;;;;;;;5092637;28;20142;-85
2023/09/12 11:47:41;;;;;;;1999.90;999.90;;;;;;;;;;5079858;28;20052;-87
2023/09/12 11:50:08;;;;;;;1999.90;999.90;;;;;;;;;;5083877;28;20056;-87
2023/09/12 11:52:37;;;;;;;1999.90;999.90;;;;;;;;;;5086524;28;20044;-86
2023/09/12 11:55:04;;;;;;;1999.90;999.90;;;;;;;;;;5082079;28;20074;-86
2023/09/12 11:57:32;;;;;;;1999.90;999.90;;;;;;;;;;5085558;28;20413;-85
2023/09/12 11:59:59;;;;;;;1999.90;999.90;;;;;;;;;;5075238;28;20501;-85
2023/09/12 12:02:26;;;;;;;1999.90;999.90;;;;;;;;;;5075007;28;20049;-86
2023/09/12 12:05:14;;;;;;;1999.90;999.90;;;;;;;;;;5087819;28;20053;-86
2023/09/12 12:07:42;;;;;;;1999.90;999.90;;;;;;;;;;5089793;28;20052;-85
2023/09/12 12:10:09;;;;;;;1999.90;999.90;;;;;;;;;;5075889;28;20072;-84
2023/09/12 12:13:02;;;;;;;1999.90;999.90;;;;;;;;;;5076290;28;20119;-86
2023/09/12 12:15:28;;;;;;;1999.90;999.90;;;;;;;;;;5075930;28;20052;-85
2023/09/12 12:17:55;;;;;;;1999.90;999.90;;;;;;;;;;5075408;28;20051;-86
2023/09/12 12:20:40;;;;;;;1999.90;999.90;;;;;;;;;;5076250;28;20050;-86
2023/09/12 12:23:06;;;;;;;1999.90;999.90;;;;;;;;;;5075879;28;20045;-84
2023/09/12 12:25:34;;;;;;;1999.90;999.90;;;;;;;;;;5079766;28;20040;-86
2023/09/12 12:31:30;;;;;;;1999.90;999.90;;;;;;;;;;5076435;28;20055;-86
2023/09/12 12:33:59;;;;;;;1999.90;999.90;;;;;;;;;;5095774;28;20052;-85
2023/09/12 12:36:26;;;;;;;1999.90;999.90;;;;;;;;;;5087680;28;20137;-87
2023/09/12 12:38:57;;;;;;;1999.90;999.90;;;;;;;;;;5095323;28;20048;-86
2023/09/12 12:41:25;;;;;;;1999.90;999.90;;;;;;;;;;5095991;28;20064;-85
2023/09/12 12:43:53;;;;;;;1999.90;999.90;;;;;;;;;;5095198;28;20138;-85
2023/09/12 12:46:21;;;;;;;1999.90;999.90;;;;;;;;;;5089448;28;20048;-85
2023/09/12 12:48:49;;;;;;;1999.90;999.90;;;;;;;;;;5075873;28;20048;-84
2023/09/12 12:51:17;;;;;;;1999.90;999.90;;;;;;;;;;5074824;28;20524;-84
2023/09/12 12:53:45;;;;;;;1999.90;999.90;;;;;;;;;;5089704;28;20059;-85
2023/09/12 12:56:15;;;;;;;1999.90;999.90;;;;;;;;;;5091472;28;20054;-85
2023/09/12 12:59:16;;;;;;;1999.90;999.90;;;;;;;;;;5092111;28;20127;-84
2023/09/12 13:01:45;;;;;;;1999.90;999.90;;;;;;;;;;5075788;28;20385;-85
2023/09/12 13:04:12;;;;;;;1999.90;999.90;;;;;;;;;;5075482;28;20063;-85
2023/09/12 13:06:40;;;;;;;1999.90;999.90;;;;;;;;;;5079586;28;20101;-85
2023/09/12 13:09:08;;;;;;;1999.90;999.90;;;;;;;;;;5074621;28;20123;-85
2023/09/12 13:11:35;;;;;;;1999.90;999.90;;;;;;;;;;5074792;28;20541;-85
2023/09/12 13:21:35;;;;;;;1999.90;999.90;;;;;;;;;;5082275;28;20067;-84
2023/09/12 13:24:01;;;;;;;1999.90;999.90;;;;;;;;;;5084898;28;20413;-85
2023/09/12 13:26:28;;;;;;;1999.90;999.90;;;;;;;;;;5079959;28;20056;-85
2023/09/12 13:28:57;;;;;;;1999.90;999.90;;;;;;;;;;5074564;28;20044;-83
2023/09/12 13:31:24;;;;;;;1999.90;999.90;;;;;;;;;;5074620;28;20475;-83
2023/09/12 13:33:50;;;;;;;1999.90;999.90;;;;;;;;;;5089820;28;20048;-83
2023/09/12 13:36:23;;;;;;;1999.90;999.90;;;;;;;;;;5087418;28;20054;-84
2023/09/12 13:38:51;;;;;;;1999.90;999.90;;;;;;;;;;5079020;28;20126;-84
2023/09/12 13:41:18;;;;;;;1999.90;999.90;;;;;;;;;;5074583;28;20048;-84
2023/09/12 13:43:45;;;;;;;1999.90;999.90;;;;;;;;;;5073631;28;20485;-84
2023/09/12 13:46:11;;;;;;;1999.90;999.90;;;;;;;;;;5076771;28;20049;-85
2023/09/12 13:48:38;;;;;;;1999.90;999.90;;;;;;;;;;5087000;28;20056;-83
2023/09/12 13:51:05;;;;;;;1999.90;999.90;;;;;;;;;;5077119;28;20044;-86
2023/09/12 13:53:32;;;;;;;1999.90;999.90;;;;;;;;;;5087046;28;20054;-85
2023/09/12 13:56:01;;;;;;;1999.90;999.90;;;;;;;;;;5087148;28;20050;-83
2023/09/12 13:58:27;;;;;;;1999.90;999.90;;;;;;;;;;5084193;28;20048;-84